ZUD weather

Pupelde Airport
Ancud, Los Lagos Region, Chile

Public forecast

Using degrees Celsius for public forecast. Weather courtesy of forecast.io.

Closest aviation weather report (METAR) to Pupelde Airport

Closest report is Mocopulli Airport, 26.4 nm (49.0 km) S. Retrieved 2019/10/21 18:00 UTC (44 minutes ago):

SCPQ 211800Z 19008KT 150V210 CAVOK 13/M00 Q1027

Closest aviation forecast (TAF) to Pupelde Airport

Forecast is more than 6 hours old.

Closest forecast is Mocopulli Airport, 26.4 nm (49.0 km) S. Retrieved 2019/10/21 12:00 UTC (7 hours ago):

TAF SCPQ 211030Z 2112/2124 22005KT 9999 SCT030 BKN040 TN05/2112Z TX13/2118Z BECMG 2118/2120 15007KT SCT035